Time;durP1;ratioP1;P1;durP2;ratioP2;P2;SDS_P1;SDS_P2;PMS_P1;PMS_P2;Temp;Humidity;BMP_temperature;BMP_pressure;BME280_temperature;BME280_humidity;BME280_pressure;Samples;Min_cycle;Max_cycle;Signal;HPM_P1;HPM_P2
2021/09/08 00:00:55;;;;;;;;;71.75;58.50;;;;;11.39;62.10;102562.63;4850113;29;12498;-85
2021/09/08 00:03:50;;;;;;;;;62.50;51.25;;;;;11.31;62.34;102557.72;4862242;29;11831;-84
2021/09/08 00:06:46;;;;;;;;;63.50;52.25;;;;;11.49;61.92;102552.56;4849621;29;11758;-85
2021/09/08 00:09:42;;;;;;;;;66.75;52.75;;;;;11.33;61.42;102557.44;4855368;29;11781;-85
2021/09/08 00:12:38;;;;;;;;;57.50;47.25;;;;;11.25;63.00;102553.34;4843124;29;11772;-87
2021/09/08 00:15:34;;;;;;;;;57.50;45.25;;;;;11.27;62.39;102556.66;4849667;29;11184;-83
2021/09/08 00:18:30;;;;;;;;;34.00;33.25;;;;;11.01;62.39;102556.03;4831237;29;11746;-86
2021/09/08 00:21:25;;;;;;;;;28.75;26.00;;;;;11.09;62.23;102549.88;4843010;29;11703;-86
2021/09/08 00:23:53;;;;;;;;;49.25;42.25;;;;;11.05;62.17;102556.28;4846513;29;11737;-87
2021/09/08 00:26:49;;;;;;;;;45.00;37.75;;;;;11.10;62.57;102550.69;4861057;29;11737;-84
2021/09/08 00:29:44;;;;;;;;;33.75;33.75;;;;;10.98;62.45;102555.78;4861889;29;11855;-87
2021/09/08 00:32:41;;;;;;;;;37.25;35.50;;;;;10.93;62.32;102551.09;4849010;29;11691;-85
2021/09/08 00:35:36;;;;;;;;;27.00;24.50;;;;;10.95;62.42;102565.47;4849605;29;11730;-86
2021/09/08 00:38:32;;;;;;;;;30.75;27.75;;;;;10.93;62.42;102561.34;4849533;29;11675;-85
2021/09/08 00:41:31;;;;;;;;;26.75;26.75;;;;;10.82;63.02;102560.63;4862285;29;11731;-85
2021/09/08 00:44:27;;;;;;;;;19.00;17.75;;;;;10.92;63.04;102562.47;4862620;29;11687;-84
2021/09/08 00:47:22;;;;;;;;;31.50;31.50;;;;;10.80;63.14;102566.41;4850463;29;12381;-85
2021/09/08 00:50:18;;;;;;;;;32.00;29.00;;;;;10.93;62.99;102559.41;4861713;29;12442;-85
2021/09/08 00:53:18;;;;;;;;;22.75;22.75;;;;;10.86;63.61;102561.66;4861490;29;11726;-87
2021/09/08 00:55:47;;;;;;;;;21.25;20.50;;;;;10.86;63.27;102567.22;4861493;29;11665;-85
2021/09/08 00:58:16;;;;;;;;;20.25;19.75;;;;;10.83;63.22;102565.03;4846172;29;11677;-85
2021/09/08 01:01:11;;;;;;;;;19.75;19.75;;;;;10.77;63.34;102569.75;4860150;29;11777;-86
2021/09/08 01:04:07;;;;;;;;;20.25;20.25;;;;;10.83;62.86;102565.03;4849014;29;12394;-86
2021/09/08 01:07:14;;;;;;;;;15.00;13.50;;;;;10.90;62.67;102575.78;4861847;29;11674;-86
2021/09/08 01:10:10;;;;;;;;;19.50;19.50;;;;;10.78;62.92;102567.81;4837303;29;11750;-85
2021/09/08 01:13:06;;;;;;;;;19.75;18.50;;;;;10.78;62.76;102567.81;4842215;29;11785;-86
2021/09/08 01:16:03;;;;;;;;;19.25;17.25;;;;;10.84;62.49;102567.50;4841710;29;11651;-86
2021/09/08 01:19:00;;;;;;;;;18.25;17.00;;;;;10.97;62.26;102562.44;4843540;29;11410;-86
2021/09/08 01:21:55;;;;;;;;;16.25;16.25;;;;;10.98;61.76;102562.16;4824508;29;11343;-86
2021/09/08 01:24:51;;;;;;;;;17.00;17.00;;;;;10.90;62.05;102557.22;4824357;29;11741;-85
2021/09/08 01:27:48;;;;;;;;;19.75;19.75;;;;;10.92;62.42;102556.94;4824129;29;11777;-86
2021/09/08 01:30:44;;;;;;;;;15.50;15.00;;;;;10.95;62.29;102548.88;4823576;29;11798;-87
2021/09/08 01:33:39;;;;;;;;;17.50;16.00;;;;;10.89;62.50;102549.19;4825027;29;11432;-86
2021/09/08 01:36:40;;;;;;;;;17.25;17.25;;;;;11.06;61.61;102555.19;4823728;29;11815;-86
2021/09/08 01:39:35;;;;;;;;;16.75;16.75;;;;;10.99;61.85;102557.44;4823613;29;11648;-86
2021/09/08 01:42:31;;;;;;;;;16.50;16.50;;;;;10.83;62.64;102548.41;4833912;29;11673;-86
2021/09/08 01:45:27;;;;;;;;;15.75;15.75;;;;;10.91;62.08;102545.03;4824398;29;11649;-87
2021/09/08 01:48:22;;;;;;;;;16.75;16.75;;;;;10.81;62.28;102547.84;4834987;29;11333;-88
2021/09/08 01:51:10;;;;;;;;;20.50;19.50;;;;;10.88;62.22;102542.00;4836462;29;11709;-87
2021/09/08 01:54:06;;;;;;;;;12.50;11.75;;;;;10.79;62.91;102545.38;4835736;29;11673;-87
2021/09/08 01:57:01;;;;;;;;;15.50;15.50;;;;;10.71;63.29;102545.16;4825697;29;11747;-88
2021/09/08 01:59:57;;;;;;;;;17.25;17.25;;;;;10.58;63.99;102546.63;4835487;29;11661;-87
2021/09/08 02:02:52;;;;;;;;;15.00;15.00;;;;;10.53;63.47;102544.72;4823541;29;11747;-87
2021/09/08 02:05:48;;;;;;;;;15.00;15.00;;;;;10.62;63.08;102542.19;4835541;29;11666;-87
2021/09/08 02:08:43;;;;;;;;;17.25;16.00;;;;;10.59;62.76;102542.78;4834808;29;11739;-88
2021/09/08 02:11:39;;;;;;;;;19.00;18.75;;;;;10.63;62.86;102543.84;4828940;29;11624;-86
2021/09/08 02:14:34;;;;;;;;;16.25;15.25;;;;;10.47;63.68;102542.28;4839109;29;11829;-84
2021/09/08 02:17:30;;;;;;;;;17.00;14.75;;;;;10.45;63.80;102537.03;4827605;29;11682;-87
2021/09/08 02:20:26;;;;;;;;;14.75;14.75;;;;;10.59;63.74;102540.00;4826781;29;11645;-84
2021/09/08 02:22:53;;;;;;;;;20.00;20.00;;;;;10.46;63.97;102533.16;4856773;29;11620;-86
2021/09/08 02:25:49;;;;;;;;;13.75;13.75;;;;;10.45;63.86;102527.91;4833236;29;11683;-86
2021/09/08 02:28:31;;;;;;;;;15.25;14.25;;;;;10.44;64.16;102531.78;4853441;29;11832;-85
2021/09/08 02:31:27;;;;;;;;;9.00;9.00;;;;;10.44;64.26;102535.38;4840924;29;11634;-86
2021/09/08 02:34:22;;;;;;;;;12.00;12.00;;;;;10.59;64.12;102531.69;4842959;29;11645;-85
2021/09/08 02:37:18;;;;;;;;;21.00;15.25;;;;;10.56;64.15;102535.84;4842128;29;11622;-85
2021/09/08 02:40:13;;;;;;;;;18.25;18.25;;;;;10.46;63.96;102535.91;4852360;29;11625;-84
2021/09/08 02:43:09;;;;;;;;;17.50;17.50;;;;;10.41;64.50;102538.69;4852036;29;11663;-85
2021/09/08 02:46:06;;;;;;;;;20.75;20.75;;;;;10.44;64.65;102542.84;4852210;29;11771;-85
2021/09/08 02:49:01;;;;;;;;;18.25;18.25;;;;;10.35;65.15;102542.63;4840566;29;11691;-85
2021/09/08 02:51:43;;;;;;;;;15.00;15.00;;;;;10.49;65.19;102542.81;4854706;29;11645;-86
2021/09/08 02:54:38;;;;;;;;;18.50;18.50;;;;;10.50;64.97;102542.50;4841136;29;11628;-85
2021/09/08 02:57:34;;;;;;;;;17.50;16.00;;;;;10.39;64.96;102540.09;4852039;29;11712;-86
2021/09/08 03:00:16;;;;;;;;;17.25;16.25;;;;;10.41;64.84;102535.94;4839651;29;12456;-80
2021/09/08 03:03:12;;;;;;;;;17.75;17.25;;;;;10.40;64.87;102539.00;4833721;29;11668;-79
2021/09/08 03:06:07;;;;;;;;;20.75;20.75;;;;;10.43;64.61;102543.97;4822053;29;11783;-79
2021/09/08 03:09:03;;;;;;;;;19.50;19.50;;;;;10.34;65.14;102540.94;4833308;29;11682;-79
2021/09/08 03:11:31;;;;;;;;;26.25;22.75;;;;;10.39;65.41;102534.56;4871189;29;11690;-79
2021/09/08 03:14:27;;;;;;;;;22.00;20.25;;;;;10.42;65.34;102540.34;4859992;29;11657;-79
2021/09/08 03:17:22;;;;;;;;;20.50;20.50;;;;;10.23;65.86;102534.66;4859270;29;11726;-79
2021/09/08 03:20:18;;;;;;;;;21.25;21.25;;;;;10.19;65.90;102536.28;4842411;29;11664;-79
2021/09/08 03:23:13;;;;;;;;;26.75;26.00;;;;;10.20;66.03;102531.63;4841594;29;11765;-79
2021/09/08 03:26:09;;;;;;;;;17.00;15.75;;;;;10.16;66.24;102536.88;4840691;29;11677;-81
2021/09/08 03:29:04;;;;;;;;;26.50;26.50;;;;;10.19;66.46;102530.75;4851644;29;11643;-81
2021/09/08 03:32:00;;;;;;;;;25.25;21.50;;;;;10.26;66.75;102536.00;4841445;29;11667;-85
2021/09/08 03:34:28;;;;;;;;;23.75;22.75;;;;;10.51;66.49;102535.91;4841831;29;12411;-84
2021/09/08 03:37:23;;;;;;;;;24.00;21.75;;;;;10.68;65.94;102529.16;4841382;29;11620;-82
2021/09/08 03:40:19;;;;;;;;;24.75;24.00;;;;;10.59;65.97;102528.94;4841447;29;11648;-81
2021/09/08 03:42:47;;;;;;;;;25.50;25.25;;;;;10.71;65.88;102542.41;4840744;29;11675;-83
2021/09/08 03:45:43;;;;;;;;;22.75;22.50;;;;;10.81;65.12;102539.56;4841338;29;12428;-81
2021/09/08 03:48:38;;;;;;;;;31.00;29.00;;;;;10.82;65.24;102539.28;4840494;29;11666;-83
2021/09/08 03:51:34;;;;;;;;;30.00;25.50;;;;;10.81;64.62;102534.88;4823867;29;11652;-81
2021/09/08 03:54:29;;;;;;;;;19.50;19.50;;;;;10.83;64.87;102545.66;4828200;29;11686;-81
2021/09/08 03:56:57;;;;;;;;;23.25;21.50;;;;;10.97;64.15;102543.06;4840411;29;11653;-81
2021/09/08 03:59:25;;;;;;;;;22.50;22.00;;;;;10.97;64.78;102545.84;4855764;29;11643;-80
2021/09/08 04:02:20;;;;;;;;;24.50;24.00;;;;;11.01;64.56;102541.34;4851332;29;11660;-81
2021/09/08 04:05:16;;;;;;;;;25.25;24.75;;;;;11.01;64.60;102544.94;4851454;29;11672;-80
2021/09/08 04:08:11;;;;;;;;;21.00;21.00;;;;;11.11;64.60;102546.81;4844366;29;11723;-80
2021/09/08 04:10:40;;;;;;;;;23.75;23.75;;;;;11.26;63.71;102543.91;4841596;29;11687;-81
2021/09/08 04:13:36;;;;;;;;;23.00;21.75;;;;;11.52;63.21;102550.06;4858697;29;11433;-80
2021/09/08 04:16:32;;;;;;;;;26.00;26.00;;;;;11.52;62.71;102538.97;4842819;29;11311;-81
2021/09/08 04:19:27;;;;;;;;;29.00;28.50;;;;;12.00;63.93;102540.97;4844211;29;11409;-82
2021/09/08 04:22:23;;;;;;;;;30.00;29.00;;;;;12.27;62.51;102543.97;4837587;29;11639;-81
2021/09/08 04:25:19;;;;;;;;;24.00;24.00;;;;;12.06;61.52;102540.63;4825889;29;11665;-81
2021/09/08 04:28:14;;;;;;;;;28.75;28.50;;;;;12.10;61.40;102546.38;4825913;29;11735;-81
2021/09/08 04:31:10;;;;;;;;;28.75;24.75;;;;;12.15;61.62;102546.31;4825624;29;12021;-82
2021/09/08 04:34:07;;;;;;;;;32.25;31.50;;;;;12.21;61.35;102545.97;4836598;29;12203;-82
2021/09/08 04:37:03;;;;;;;;;32.00;29.50;;;;;12.47;60.44;102545.63;4824605;29;11750;-81
2021/09/08 04:39:58;;;;;;;;;44.00;37.75;;;;;12.67;60.48;102550.91;4825590;29;11675;-80
2021/09/08 04:42:26;;;;;;;;;37.00;33.50;;;;;12.77;59.71;102555.47;4825861;29;12433;-81
2021/09/08 04:44:54;;;;;;;;;26.25;26.25;;;;;12.85;59.62;102552.00;4825742;29;11685;-81
2021/09/08 04:47:22;;;;;;;;;31.75;31.50;;;;;12.85;59.31;102554.78;4825503;29;11366;-80
2021/09/08 04:49:49;;;;;;;;;27.75;26.25;;;;;13.29;60.21;102550.78;4824851;29;11154;-82
2021/09/08 04:52:18;;;;;;;;;33.00;32.75;;;;;12.92;59.51;102552.44;4825789;29;11021;-84
2021/09/08 04:54:47;;;;;;;;;30.25;30.25;;;;;13.53;60.49;102551.44;4824779;29;11187;-82
2021/09/08 04:57:14;;;;;;;;;21.75;21.75;;;;;13.93;61.21;102548.19;4824522;29;11209;-81
2021/09/08 04:59:42;;;;;;;;;29.50;27.00;;;;;14.17;58.92;102546.03;4825790;29;10944;-82
2021/09/08 05:02:10;;;;;;;;;27.00;26.25;;;;;14.16;59.30;102550.78;4825627;29;10882;-82
2021/09/08 05:04:38;;;;;;;;;24.75;23.75;;;;;14.60;60.24;102551.25;4839622;29;10919;-82
2021/09/08 05:07:06;;;;;;;;;39.50;36.50;;;;;14.72;56.88;102557.94;4839223;29;10700;-83
2021/09/08 05:09:33;;;;;;;;;46.75;40.50;;;;;14.48;55.53;102550.97;4824068;29;11031;-82
2021/09/08 05:12:02;;;;;;;;;46.00;40.00;;;;;14.45;56.39;102549.59;4824129;29;11120;-83
2021/09/08 05:14:31;;;;;;;;;50.25;40.75;;;;;14.62;56.48;102547.00;4824348;29;11399;-83
2021/09/08 05:16:58;;;;;;;;;50.75;42.25;;;;;14.79;55.86;102542.72;4838564;29;11442;-83
2021/09/08 05:19:27;;;;;;;;;51.75;44.00;;;;;14.75;54.63;102545.34;4825312;29;11662;-82
2021/09/08 05:21:55;;;;;;;;;58.50;49.00;;;;;15.19;56.08;102546.50;4825442;29;11672;-83
2021/09/08 05:24:22;;;;;;;;;49.00;41.75;;;;;15.44;57.02;102545.03;4823788;29;11680;-82
2021/09/08 05:26:58;;;;;;;;;79.50;68.50;;;;;15.40;53.60;102547.59;4823523;29;11483;-84
2021/09/08 05:29:26;;;;;;;;;81.75;72.00;;;;;15.73;52.94;102542.59;4824071;29;11773;-85
2021/09/08 05:31:56;;;;;;;;;92.50;81.75;;;;;15.74;51.04;102532.25;4825610;29;11763;-83
2021/09/08 05:34:23;;;;;;;;;113.00;103.67;;;;;16.17;51.37;102537.97;4825258;29;12591;-84
2021/09/08 05:37:19;;;;;;;;;147.33;126.00;;;;;16.29;48.11;102538.16;4840167;29;11786;-84
2021/09/08 05:40:15;;;;;;;;;58.33;41.00;;;;;16.54;47.75;102535.75;4861255;29;8987;-84
2021/09/08 05:43:10;;;;;;;;;53.75;43.75;;;;;17.06;52.37;102533.81;4870638;29;8873;-85
2021/09/08 05:46:06;;;;;;;;;51.00;42.25;;;;;17.38;52.00;102528.81;4856711;29;11661;-85
2021/09/08 05:49:02;;;;;;;;;92.75;89.75;;;;;17.47;44.11;102524.00;4823331;29;11707;-85
2021/09/08 05:51:58;;;;;;;;;70.00;55.00;;;;;17.82;50.25;102521.13;4824900;29;11825;-83
2021/09/08 05:54:53;;;;;;;;;65.50;52.50;;;;;17.59;43.73;102520.53;4834621;29;11686;-82
2021/09/08 05:57:39;;;;;;;;;60.25;49.25;;;;;17.77;45.87;102527.72;4841366;29;11342;-83
2021/09/08 06:00:20;;;;;;;;;77.75;66.25;;;;;17.96;44.27;102522.53;4841344;29;11165;-84
2021/09/08 06:02:48;;;;;;;;;66.75;54.25;;;;;17.97;43.32;102521.38;4842714;29;12444;-83
2021/09/08 06:05:16;;;;;;;;;72.75;56.00;;;;;18.13;45.69;102513.22;4856636;29;11742;-84
2021/09/08 06:07:45;;;;;;;;;70.50;53.75;;;;;18.12;42.89;102522.78;4842539;29;11702;-84
2021/09/08 06:10:17;;;;;;;;;68.00;55.00;;;;;18.16;43.17;102514.50;4856703;29;11798;-84
2021/09/08 06:12:45;;;;;;;;;57.25;47.00;;;;;18.47;44.29;102520.56;4841647;29;11025;-84
2021/09/08 06:15:15;;;;;;;;;65.25;52.25;;;;;18.64;43.50;102519.63;4857724;29;10985;-84
2021/09/08 06:17:44;;;;;;;;;58.75;48.75;;;;;18.70;44.46;102521.06;4859757;29;10971;-83
2021/09/08 06:20:12;;;;;;;;;60.50;49.00;;;;;18.82;43.41;102512.75;4860948;29;10871;-84
2021/09/08 06:22:43;;;;;;;;;62.25;50.50;;;;;18.99;41.69;102517.38;4860130;29;10919;-83
2021/09/08 06:25:12;;;;;;;;;68.00;54.00;;;;;18.94;40.34;102513.94;4844878;29;10833;-84
2021/09/08 06:27:42;;;;;;;;;65.25;53.75;;;;;19.15;44.04;102520.34;4844652;29;11133;-82
2021/09/08 06:30:10;;;;;;;;;77.75;66.00;;;;;19.14;40.54;102518.72;4843782;29;10919;-84
2021/09/08 06:32:38;;;;;;;;;61.50;49.50;;;;;19.31;38.67;102524.13;4844401;29;11704;-83
2021/09/08 06:35:08;;;;;;;;;61.75;50.25;;;;;19.62;43.44;102517.22;4844641;29;10519;-84
2021/09/08 06:37:36;;;;;;;;;74.00;64.00;;;;;19.52;37.71;102526.88;4859502;29;10483;-84
2021/09/08 06:40:04;;;;;;;;;65.50;53.00;;;;;19.78;40.00;102529.38;4860569;29;11698;-84
2021/09/08 06:42:32;;;;;;;;;63.75;52.25;;;;;19.94;39.83;102530.38;4860641;29;11102;-84
2021/09/08 06:45:07;;;;;;;;;65.25;52.00;;;;;20.10;42.64;102524.03;4860401;29;10900;-84
2021/09/08 06:47:36;;;;;;;;;54.00;45.25;;;;;20.23;38.44;102525.66;4844322;29;10381;-84
2021/09/08 06:50:04;;;;;;;;;52.25;44.50;;;;;20.22;40.19;102522.00;4844128;29;9829;-80
2021/09/08 06:52:32;;;;;;;;;22.50;21.50;;;;;20.13;36.35;102521.34;4844267;29;9614;-83
2021/09/08 06:55:01;;;;;;;;;22.50;20.50;;;;;20.45;38.09;102530.78;4859275;29;8886;-80
2021/09/08 06:57:29;;;;;;;;;48.67;40.33;;;;;20.62;39.65;102532.50;4860243;29;8902;-80
2021/09/08 06:59:57;;;;;;;;;29.25;28.25;;;;;20.99;37.69;102527.59;4844051;29;9959;-81
2021/09/08 07:02:25;;;;;;;;;50.50;43.00;;;;;21.18;39.44;102526.94;4859717;29;8862;-80
2021/09/08 07:04:53;;;;;;;;;23.50;23.50;;;;;21.22;35.72;102527.81;4860913;29;9508;-80
2021/09/08 07:07:21;;;;;;;;;45.25;39.00;;;;;21.54;39.56;102533.53;4860113;29;8862;-80
2021/09/08 07:09:49;;;;;;;;;20.75;20.75;;;;;21.57;35.15;102541.28;4860425;29;8859;-83
2021/09/08 07:12:17;;;;;;;;;9.50;9.50;;;;;21.46;33.52;102521.25;4860811;29;8973;-84
2021/09/08 07:14:45;;;;;;;;;11.75;11.75;;;;;21.69;34.25;102527.09;4829658;29;8870;-85
2021/09/08 07:17:14;;;;;;;;;16.50;16.50;;;;;21.85;34.63;102533.56;4859301;29;8893;-84
2021/09/08 07:19:42;;;;;;;;;14.25;13.50;;;;;21.67;32.50;102532.28;4844223;29;8906;-84
2021/09/08 07:22:10;;;;;;;;;12.50;12.50;;;;;21.78;33.47;102527.75;4860534;29;8890;-85
2021/09/08 07:24:38;;;;;;;;;13.00;13.00;;;;;22.03;33.57;102524.75;4859417;29;8874;-84
2021/09/08 07:27:05;;;;;;;;;20.50;19.75;;;;;22.16;36.15;102518.66;4843501;29;8922;-84
2021/09/08 07:29:33;;;;;;;;;27.00;27.00;;;;;22.33;34.79;102516.63;4843902;29;9017;-83
2021/09/08 07:32:01;;;;;;;;;15.50;13.50;;;;;22.41;33.49;102515.59;4844160;29;8882;-83
2021/09/08 07:34:29;;;;;;;;;11.50;11.50;;;;;22.58;32.40;102514.34;4859089;29;8870;-85
2021/09/08 07:36:59;;;;;;;;;14.25;14.25;;;;;22.72;33.52;102515.47;4859046;29;9610;-84
2021/09/08 07:39:29;;;;;;;;;15.00;15.00;;;;;22.58;32.21;102520.00;4860314;29;8863;-83
2021/09/08 07:41:57;;;;;;;;;18.00;18.00;;;;;22.72;33.96;102514.66;4863402;29;8894;-84
2021/09/08 07:44:25;;;;;;;;;21.75;19.50;;;;;22.97;33.10;102518.84;4862686;29;8897;-84
2021/09/08 07:46:56;;;;;;;;;16.25;16.25;;;;;22.70;30.09;102515.03;4847723;29;8898;-84
2021/09/08 07:49:24;;;;;;;;;18.75;18.75;;;;;23.21;32.62;102514.06;4847302;29;8878;-83
2021/09/08 07:51:52;;;;;;;;;22.75;20.50;;;;;23.32;30.61;102503.81;4863679;29;8907;-84
2021/09/08 07:54:20;;;;;;;;;22.75;22.75;;;;;23.33;30.08;102505.44;4862454;29;8863;-84
2021/09/08 07:56:48;;;;;;;;;18.75;18.75;;;;;23.35;28.90;102510.69;4863374;29;9649;-84
2021/09/08 07:59:15;;;;;;;;;12.50;12.50;;;;;23.53;29.19;102504.16;4847488;29;8875;-85
2021/09/08 08:01:43;;;;;;;;;8.80;8.80;;;;;23.66;29.15;102509.66;4847392;29;8918;-88
2021/09/08 08:04:12;;;;;;;;;6.00;6.00;;;;;23.73;29.53;102504.13;4862505;29;8859;-72
2021/09/08 08:06:40;;;;;;;;;8.20;8.20;;;;;23.67;29.58;102505.66;4863291;29;8886;-83
2021/09/08 08:09:07;;;;;;;;;13.80;13.80;;;;;23.89;29.86;102504.00;4860726;29;8893;-85
2021/09/08 08:12:03;;;;;;;;;5.00;5.00;;;;;24.08;27.36;102493.41;4847099;29;8969;-82
2021/09/08 08:15:00;;;;;;;;;9.80;9.60;;;;;24.09;28.29;102491.41;4860505;29;9593;-84
2021/09/08 08:17:55;;;;;;;;;5.00;5.00;;;;;24.07;26.57;102490.94;4843722;29;8897;-84
2021/09/08 08:20:24;;;;;;;;;6.80;6.80;;;;;24.14;28.62;102489.03;4828696;29;8888;-82
2021/09/08 08:23:19;;;;;;;;;9.20;9.20;;;;;24.01;27.83;102475.53;4842793;29;8888;-84
2021/09/08 08:25:47;;;;;;;;;6.80;6.80;;;;;24.30;27.09;102474.72;4843372;29;8876;-81
2021/09/08 08:28:15;;;;;;;;;5.80;4.80;;;;;24.19;27.18;102478.63;4844662;29;8896;-80
2021/09/08 08:30:43;;;;;;;;;6.60;6.60;;;;;23.72;26.93;102483.56;4844773;29;8911;-83
2021/09/08 08:33:11;;;;;;;;;7.00;7.00;;;;;24.06;26.30;102481.66;4828486;29;9636;-85
2021/09/08 08:35:39;;;;;;;;;6.20;6.20;;;;;24.09;26.48;102466.78;4828571;29;8957;-87
2021/09/08 08:38:07;;;;;;;;;8.80;8.80;;;;;24.49;27.56;102470.19;4843192;29;8884;-85
2021/09/08 08:40:35;;;;;;;;;9.80;9.80;;;;;24.51;27.59;102468.59;4843289;29;8865;-84
2021/09/08 08:43:03;;;;;;;;;7.20;7.20;;;;;24.68;27.48;102472.84;4844446;29;8927;-83
2021/09/08 08:45:31;;;;;;;;;7.00;7.00;;;;;24.82;27.74;102469.38;4843108;29;8969;-85
2021/09/08 08:48:00;;;;;;;;;9.80;9.80;;;;;24.95;28.41;102465.88;4844327;29;8889;-83
2021/09/08 08:50:28;;;;;;;;;9.60;9.60;;;;;25.33;28.75;102468.75;4845196;29;8873;-81
2021/09/08 08:52:57;;;;;;;;;3.60;3.60;;;;;24.90;25.52;102469.06;4844916;29;8869;-86
2021/09/08 08:55:26;;;;;;;;;5.60;5.60;;;;;24.77;25.77;102464.06;4828128;29;8893;-84
2021/09/08 08:57:53;;;;;;;;;4.80;4.80;;;;;24.30;26.09;102462.59;4844452;29;9144;-84
2021/09/08 09:00:22;;;;;;;;;7.00;7.00;;;;;24.97;27.07;102459.84;4844162;29;8899;-81
2021/09/08 09:02:53;;;;;;;;;8.60;8.60;;;;;25.33;27.34;102458.22;4845712;29;8881;-84
2021/09/08 09:05:35;;;;;;;;;7.60;7.40;;;;;25.61;26.35;102456.81;4829554;29;8880;-84
2021/09/08 09:08:06;;;;;;;;;9.20;9.20;;;;;25.87;26.97;102459.50;4843817;29;8916;-84
2021/09/08 09:10:35;;;;;;;;;8.40;8.40;;;;;25.85;26.50;102450.59;4827398;29;8958;-83
2021/09/08 09:13:03;;;;;;;;;8.80;8.80;;;;;26.03;27.00;102445.84;4832088;29;8888;-87
2021/09/08 09:15:32;;;;;;;;;9.60;9.60;;;;;25.89;25.95;102448.56;4846299;29;8869;-85
2021/09/08 09:18:01;;;;;;;;;8.00;8.00;;;;;26.20;25.86;102444.31;4842449;29;8888;-84
2021/09/08 09:20:30;;;;;;;;;8.80;7.80;;;;;26.23;25.70;102434.22;4843611;29;8881;-85
2021/09/08 09:23:03;;;;;;;;;10.20;10.20;;;;;26.48;25.55;102437.19;4827753;29;8880;-86
2021/09/08 09:25:36;;;;;;;;;7.00;7.00;;;;;26.43;25.41;102437.56;4843666;29;8932;-85
2021/09/08 09:28:06;;;;;;;;;12.00;12.00;;;;;26.77;25.55;102433.25;4843704;29;8923;-85
2021/09/08 09:30:39;;;;;;;;;7.40;7.40;;;;;25.79;25.47;102440.81;4844146;29;8937;-85
2021/09/08 09:33:30;;;;;;;;;10.40;10.40;;;;;26.16;24.88;102423.66;4845247;29;8888;-84
2021/09/08 09:36:14;;;;;;;;;9.40;9.40;;;;;26.20;24.32;102426.47;4833133;29;8887;-86
2021/09/08 09:38:45;;;;;;;;;10.40;10.40;;;;;26.24;25.58;102428.13;4849083;29;8931;-83
2021/09/08 09:41:15;;;;;;;;;12.80;12.80;;;;;26.49;24.74;102424.63;4844723;29;8885;-86
2021/09/08 09:43:45;;;;;;;;;7.60;7.60;;;;;25.99;24.05;102418.66;4863869;29;8891;-84
2021/09/08 09:46:45;;;;;;;;;8.80;8.80;;;;;25.77;25.71;102418.56;4861315;29;8888;-86
2021/09/08 09:49:41;;;;;;;;;9.20;9.20;;;;;26.31;25.16;102407.50;4856941;29;8870;-85
2021/09/08 09:52:08;;;;;;;;;9.40;9.40;;;;;26.04;24.96;102402.09;4860753;29;8893;-83
2021/09/08 09:55:05;;;;;;;;;10.60;10.60;;;;;26.33;23.21;102400.22;4856810;29;8883;-82
2021/09/08 09:58:02;;;;;;;;;5.20;5.20;;;;;26.05;23.91;102391.56;4858637;29;8850;-90
2021/09/08 10:00:58;;;;;;;;;8.20;8.20;;;;;26.33;25.12;102399.41;4863429;29;8870;-84
2021/09/08 10:03:26;;;;;;;;;8.20;8.20;;;;;26.63;24.98;102396.31;4855313;29;8868;-83
2021/09/08 10:06:17;;;;;;;;;7.00;7.00;;;;;26.30;24.47;102403.88;4852639;29;8884;-87
2021/09/08 10:09:17;;;;;;;;;8.80;8.80;;;;;26.50;24.63;102393.00;4846212;29;8865;-86
2021/09/08 10:12:01;;;;;;;;;9.40;9.00;;;;;26.93;23.56;102395.97;4843537;29;8897;-88
2021/09/08 10:15:00;;;;;;;;;7.60;7.60;;;;;27.56;23.86;102396.41;4844751;29;8878;-86
2021/09/08 10:18:06;;;;;;;;;10.40;9.80;;;;;27.83;24.32;102391.09;4850771;29;8878;-86
2021/09/08 10:21:03;;;;;;;;;8.60;8.60;;;;;27.79;22.77;102387.47;4844338;29;8953;-88
2021/09/08 10:24:02;;;;;;;;;8.80;8.80;;;;;27.05;24.22;102389.91;4843287;29;8873;-88
2021/09/08 10:26:58;;;;;;;;;7.60;7.60;;;;;27.70;22.69;102385.88;4842127;29;9006;-90
2021/09/08 10:29:54;;;;;;;;;10.20;10.20;;;;;27.86;23.32;102385.44;4830200;29;8963;-88
2021/09/08 10:32:51;;;;;;;;;11.40;11.40;;;;;27.57;22.24;102372.47;4843194;29;8892;-85
2021/09/08 10:35:47;;;;;;;;;7.00;7.00;;;;;27.70;21.79;102368.81;4829880;29;8877;-80
2021/09/08 10:38:43;;;;;;;;;7.60;7.60;;;;;27.53;21.97;102372.47;4841758;29;8865;-81
2021/09/08 10:41:48;;;;;;;;;9.60;9.60;;;;;27.90;22.81;102374.03;4848205;29;8886;-84
2021/09/08 10:44:50;;;;;;;;;9.40;9.40;;;;;27.30;22.78;102363.56;4864132;29;8899;-81
2021/09/08 10:47:46;;;;;;;;;7.20;7.20;;;;;27.72;23.15;102368.41;4876339;29;8879;-87
2021/09/08 10:50:45;;;;;;;;;12.20;10.60;;;;;27.41;24.79;102368.00;4860914;29;8901;-83
2021/09/08 10:53:20;;;;;;;;;7.40;7.40;;;;;27.52;24.65;102364.34;4859130;29;8935;-82
2021/09/08 10:56:16;;;;;;;;;10.20;9.20;;;;;27.40;23.71;102366.41;4856303;29;8885;-80
2021/09/08 10:59:12;;;;;;;;;3.00;3.00;;;;;27.43;22.37;102365.56;4849675;29;8870;-80
2021/09/08 11:01:54;;;;;;;;;7.80;7.80;;;;;26.92;22.36;102368.81;4859199;29;8917;-81
2021/09/08 11:04:58;;;;;;;;;6.80;6.80;;;;;27.46;22.66;102358.28;4846775;29;8933;-79
2021/09/08 11:07:54;;;;;;;;;7.40;7.40;;;;;27.30;23.92;102361.53;4849597;29;8893;-78
2021/09/08 11:10:50;;;;;;;;;13.40;13.00;;;;;28.20;24.18;102353.63;4857118;29;8874;-81
2021/09/08 11:13:57;;;;;;;;;12.00;12.00;;;;;28.59;22.25;102355.47;4859676;29;8878;-82
2021/09/08 11:16:59;;;;;;;;;9.60;9.60;;;;;29.03;22.85;102352.75;4873384;29;9632;-79
2021/09/08 11:19:59;;;;;;;;;5.00;5.00;;;;;27.75;22.62;102342.00;4874040;29;8869;-83
2021/09/08 11:22:27;;;;;;;;;7.00;7.00;;;;;27.40;22.22;102352.19;4863464;29;8881;-83
2021/09/08 11:25:28;;;;;;;;;6.00;6.00;;;;;27.06;22.90;102353.81;4862824;29;8878;-78
2021/09/08 11:28:30;;;;;;;;;6.40;6.40;;;;;27.40;22.61;102351.38;4850405;29;8917;-79
2021/09/08 11:31:32;;;;;;;;;4.00;4.00;;;;;27.54;21.37;102339.19;4863094;29;8973;-83
2021/09/08 11:34:29;;;;;;;;;5.00;5.00;;;;;27.43;22.31;102347.72;4863887;29;8866;-79
2021/09/08 11:37:25;;;;;;;;;5.60;5.60;;;;;27.57;22.01;102344.84;4862719;29;8996;-78
2021/09/08 11:40:22;;;;;;;;;5.60;5.60;;;;;26.51;22.16;102337.09;4866237;29;8862;-80
2021/09/08 11:43:34;;;;;;;;;5.00;5.00;;;;;27.32;22.34;102336.38;4852122;29;8874;-80
2021/09/08 11:46:31;;;;;;;;;5.60;5.60;;;;;27.42;21.64;102332.69;4844716;29;8844;-77
2021/09/08 11:49:27;;;;;;;;;5.20;5.20;;;;;27.60;21.85;102326.97;4843448;29;8876;-76
2021/09/08 11:52:22;;;;;;;;;7.00;7.00;;;;;27.81;21.55;102328.19;4843241;29;8872;-78
2021/09/08 11:55:33;;;;;;;;;5.00;5.00;;;;;28.00;21.36;102324.06;4857045;29;8874;-85
2021/09/08 11:58:21;;;;;;;;;4.80;4.80;;;;;28.03;20.33;102321.19;4863420;29;8969;-80
2021/09/08 12:01:17;;;;;;;;;4.80;4.40;;;;;27.31;20.40;102320.56;4844589;29;8865;-84
2021/09/08 12:04:13;;;;;;;;;4.00;4.00;;;;;28.09;20.64;102324.41;4858263;29;8886;-79
2021/09/08 12:07:09;;;;;;;;;3.60;3.60;;;;;28.07;19.42;102324.84;4862166;29;8926;-81
2021/09/08 12:09:52;;;;;;;;;5.00;5.00;;;;;28.02;20.62;102313.88;4862419;29;8893;-81
2021/09/08 12:12:56;;;;;;;;;7.40;7.40;;;;;28.41;19.89;102313.72;4858242;29;8876;-80
2021/09/08 12:15:51;;;;;;;;;7.20;7.20;;;;;28.30;19.49;102315.00;4844661;29;8893;-83
2021/09/08 12:18:47;;;;;;;;;7.20;7.20;;;;;28.51;21.79;102307.13;4845298;29;9007;-80
2021/09/08 12:21:44;;;;;;;;;6.80;6.80;;;;;28.55;21.11;102303.47;4843706;29;8873;-81
2021/09/08 12:25:00;;;;;;;;;7.20;7.20;;;;;28.03;21.49;102295.59;4843951;29;8977;-79
2021/09/08 12:28:06;;;;;;;;;8.40;8.40;;;;;28.62;21.64;102301.38;4851636;29;8907;-81
2021/09/08 12:31:15;;;;;;;;;8.00;8.00;;;;;29.13;20.41;102296.09;4861348;29;8878;-81
2021/09/08 12:33:59;;;;;;;;;6.00;5.60;;;;;29.15;20.47;102294.47;4861413;29;8906;-78